createdAt,value
2017-10-21T00:02:12.905Z,81.40
2017-10-21T00:04:40.460Z,81.70
2017-10-21T00:07:08.001Z,81.80
2017-10-21T00:09:35.609Z,81.80
2017-10-21T00:12:03.532Z,81.70
2017-10-21T00:14:31.095Z,81.70
2017-10-21T00:16:58.645Z,81.40
2017-10-21T00:19:26.591Z,81.70
2017-10-21T00:21:54.158Z,81.70
2017-10-21T00:24:21.713Z,81.20
2017-10-21T00:26:49.274Z,81.00
2017-10-21T00:29:16.828Z,81.20
2017-10-21T00:31:44.414Z,81.10
2017-10-21T00:34:11.960Z,81.00
2017-10-21T00:36:39.501Z,81.00
2017-10-21T00:39:07.461Z,80.80
2017-10-21T00:41:34.993Z,80.80
2017-10-21T00:44:02.548Z,81.10
2017-10-21T00:46:30.084Z,81.00
2017-10-21T00:48:57.631Z,80.70
2017-10-21T00:51:25.189Z,81.10
2017-10-21T00:53:52.769Z,80.60
2017-10-21T00:56:20.352Z,80.50
2017-10-21T00:58:47.908Z,80.30
2017-10-21T01:01:15.468Z,80.20
2017-10-21T01:03:43.015Z,80.40
2017-10-21T01:06:10.987Z,80.20
2017-10-21T01:08:38.527Z,80.30
2017-10-21T01:11:06.067Z,80.40
2017-10-21T01:13:33.609Z,80.50
2017-10-21T01:16:01.206Z,80.30
2017-10-21T01:18:28.745Z,80.50
2017-10-21T01:20:56.274Z,80.30
2017-10-21T01:23:23.836Z,80.60
2017-10-21T01:25:51.378Z,80.40
2017-10-21T01:28:18.933Z,80.60
2017-10-21T01:30:46.862Z,80.80
2017-10-21T01:33:14.467Z,80.80
2017-10-21T01:35:42.065Z,80.60
2017-10-21T01:38:10.003Z,80.80
2017-10-21T01:40:37.556Z,80.80
2017-10-21T01:43:05.140Z,80.80
2017-10-21T01:45:32.694Z,81.00
2017-10-21T01:48:00.235Z,80.80
2017-10-21T01:50:28.198Z,81.00
2017-10-21T01:52:55.742Z,81.00
2017-10-21T01:55:23.274Z,81.20
2017-10-21T01:57:50.835Z,80.90
2017-10-21T02:00:18.765Z,81.10
2017-10-21T02:02:46.387Z,81.10
2017-10-21T02:05:14.341Z,80.80
2017-10-21T02:07:41.899Z,80.80
2017-10-21T02:10:09.428Z,81.50
2017-10-21T02:12:37.025Z,81.20
2017-10-21T02:15:04.554Z,81.10
2017-10-21T02:17:32.089Z,81.20
2017-10-21T02:19:59.644Z,81.10
2017-10-21T02:22:27.206Z,81.00
2017-10-21T02:24:54.887Z,81.00
2017-10-21T02:27:22.429Z,81.20
2017-10-21T02:29:49.988Z,80.80
2017-10-21T02:32:17.939Z,81.00
2017-10-21T02:34:45.523Z,81.00
2017-10-21T02:37:13.055Z,81.00
2017-10-21T02:39:40.583Z,81.00
2017-10-21T02:42:08.525Z,80.60
2017-10-21T02:44:36.064Z,80.60
2017-10-21T02:47:03.600Z,81.00
2017-10-21T02:49:31.533Z,81.10
2017-10-21T02:51:59.083Z,81.10
2017-10-21T02:54:26.627Z,81.00
2017-10-21T02:56:54.599Z,81.00
2017-10-21T02:59:22.148Z,81.00
2017-10-21T03:01:49.683Z,81.20
2017-10-21T03:04:17.234Z,81.00
2017-10-21T03:06:44.786Z,81.10
2017-10-21T03:09:12.345Z,81.20
2017-10-21T03:11:39.872Z,81.50
2017-10-21T03:14:07.475Z,81.20
2017-10-21T03:16:35.004Z,81.50
2017-10-21T03:19:02.534Z,81.50
2017-10-21T03:21:30.088Z,81.60
2017-10-21T03:23:57.643Z,81.50
2017-10-21T03:26:25.220Z,81.50
2017-10-21T03:28:52.764Z,81.40
2017-10-21T03:31:20.349Z,81.40
2017-10-21T03:33:47.898Z,81.40
2017-10-21T03:36:15.475Z,81.30
2017-10-21T03:38:43.023Z,81.50
2017-10-21T03:41:10.971Z,81.70
2017-10-21T03:43:38.541Z,81.60
2017-10-21T03:46:06.095Z,81.80
2017-10-21T03:48:33.657Z,81.70
2017-10-21T03:51:01.194Z,82.00
2017-10-21T03:53:28.833Z,81.80
2017-10-21T03:55:56.368Z,81.80
2017-10-21T03:58:23.911Z,82.10
2017-10-21T04:00:51.856Z,82.20
2017-10-21T04:03:19.421Z,82.20
2017-10-21T04:05:46.960Z,82.10
2017-10-21T04:08:14.509Z,82.30
2017-10-21T04:10:42.476Z,82.50
2017-10-21T04:13:10.427Z,82.60
2017-10-21T04:15:37.970Z,82.60
2017-10-21T04:18:05.529Z,82.70
2017-10-21T04:20:33.098Z,83.00
2017-10-21T04:23:00.660Z,83.00
2017-10-21T04:25:28.602Z,83.40
2017-10-21T04:27:56.172Z,83.30
2017-10-21T04:30:23.706Z,83.20
2017-10-21T04:32:51.254Z,83.00
2017-10-21T04:35:19.214Z,83.30
2017-10-21T04:37:46.761Z,83.30
2017-10-21T04:40:14.330Z,83.30
2017-10-21T04:42:41.926Z,83.40
2017-10-21T04:45:09.598Z,83.40
2017-10-21T04:47:37.129Z,83.80
2017-10-21T04:50:04.686Z,83.60
2017-10-21T04:52:32.239Z,83.80
2017-10-21T04:55:00.178Z,84.00
2017-10-21T04:57:27.737Z,84.10
2017-10-21T04:59:55.324Z,84.10
2017-10-21T05:02:22.888Z,84.20
2017-10-21T05:04:50.424Z,84.30
2017-10-21T05:07:17.955Z,84.50
2017-10-21T05:09:45.520Z,84.70
2017-10-21T05:12:13.056Z,84.80
2017-10-21T05:14:40.614Z,85.00
2017-10-21T05:17:08.168Z,85.00
2017-10-21T05:19:36.236Z,85.20
2017-10-21T05:22:03.818Z,85.20
2017-10-21T05:24:31.764Z,85.90
2017-10-21T05:26:59.310Z,85.90
2017-10-21T05:29:26.837Z,85.90
2017-10-21T05:31:54.791Z,86.00
2017-10-21T05:34:22.324Z,86.00
2017-10-21T05:36:49.893Z,85.80
2017-10-21T05:39:17.425Z,85.90
2017-10-21T05:41:45.379Z,86.20
2017-10-21T05:44:12.935Z,86.20
2017-10-21T05:46:40.474Z,86.40
2017-10-21T05:49:08.039Z,86.50
2017-10-21T05:51:35.986Z,87.10
2017-10-21T05:54:03.569Z,87.10
2017-10-21T05:56:31.115Z,87.30
2017-10-21T05:58:58.721Z,87.30
2017-10-21T06:01:26.697Z,87.60
2017-10-21T06:03:54.222Z,87.60
2017-10-21T06:06:21.786Z,87.70
2017-10-21T06:08:49.328Z,87.90
2017-10-21T06:11:16.876Z,88.20
2017-10-21T06:13:44.442Z,88.10
2017-10-21T06:16:11.993Z,88.20
2017-10-21T06:18:39.553Z,88.30
2017-10-21T06:21:07.149Z,88.20
2017-10-21T06:23:34.702Z,88.30
2017-10-21T06:26:02.281Z,88.60
2017-10-21T06:28:29.864Z,88.60
2017-10-21T06:30:57.430Z,88.90
2017-10-21T06:33:30.790Z,89.10
2017-10-21T06:35:58.417Z,89.30
2017-10-21T06:38:25.960Z,89.30
2017-10-21T06:40:53.524Z,89.50
2017-10-21T06:43:21.081Z,89.60
2017-10-21T06:45:48.636Z,89.70
2017-10-21T06:48:16.176Z,89.50
2017-10-21T06:50:43.756Z,89.50
2017-10-21T06:53:11.371Z,89.50
2017-10-21T06:55:38.919Z,89.50
2017-10-21T06:58:06.875Z,89.50
2017-10-21T07:00:34.428Z,89.50
2017-10-21T07:03:01.981Z,89.40
2017-10-21T07:05:29.520Z,89.20
2017-10-21T07:07:57.114Z,89.50
2017-10-21T07:10:24.659Z,89.20
2017-10-21T07:12:52.589Z,89.30
2017-10-21T07:15:20.190Z,89.30
2017-10-21T07:17:47.728Z,89.40
2017-10-21T07:20:15.336Z,89.40
2017-10-21T07:22:44.018Z,89.30
2017-10-21T07:25:11.665Z,89.50
2017-10-21T07:27:39.217Z,89.30
2017-10-21T07:30:07.178Z,89.10
2017-10-21T07:32:35.129Z,89.20
2017-10-21T07:35:02.694Z,89.30
2017-10-21T07:37:30.255Z,89.20
2017-10-21T07:39:57.803Z,89.20
2017-10-21T07:42:25.365Z,89.50
2017-10-21T07:44:52.909Z,89.10
2017-10-21T07:47:20.453Z,89.10
2017-10-21T07:49:48.004Z,89.20
2017-10-21T07:52:15.565Z,89.50
2017-10-21T07:54:43.129Z,90.40
2017-10-21T07:57:10.680Z,90.70
2017-10-21T07:59:38.630Z,91.70
2017-10-21T08:02:06.164Z,91.70
2017-10-21T08:04:33.758Z,92.30
2017-10-21T08:07:01.314Z,93.10
2017-10-21T08:09:28.864Z,93.50
2017-10-21T08:11:56.389Z,94.10
2017-10-21T08:14:23.949Z,94.80
2017-10-21T08:16:51.507Z,95.70
2017-10-21T08:19:19.069Z,95.90
2017-10-21T08:21:46.616Z,96.60
2017-10-21T08:24:14.182Z,97.10
2017-10-21T08:26:41.759Z,97.60
2017-10-21T08:29:09.320Z,97.80
2017-10-21T08:31:37.266Z,97.60
2017-10-21T08:34:04.828Z,97.60
2017-10-21T08:36:32.390Z,98.00
2017-10-21T08:38:59.963Z,98.20
2017-10-21T08:41:27.537Z,98.40
2017-10-21T08:43:55.133Z,98.50
2017-10-21T08:46:23.201Z,98.70
2017-10-21T08:48:50.760Z,98.70
2017-10-21T08:51:18.336Z,98.70
2017-10-21T08:53:45.874Z,98.90
2017-10-21T08:56:13.433Z,99.00
2017-10-21T08:58:41.365Z,98.40
2017-10-21T09:01:08.940Z,98.40
2017-10-21T09:03:36.487Z,98.70
2017-10-21T09:06:04.042Z,98.90
2017-10-21T09:08:31.584Z,99.00
2017-10-21T09:10:59.138Z,99.00
2017-10-21T09:13:26.688Z,98.90
2017-10-21T09:15:54.261Z,99.10
2017-10-21T09:18:21.818Z,98.90
2017-10-21T09:20:49.365Z,99.00
2017-10-21T09:23:17.294Z,98.70
2017-10-21T09:25:44.855Z,98.70
2017-10-21T09:28:12.415Z,99.00
2017-10-21T09:30:39.981Z,98.80
2017-10-21T09:33:07.517Z,99.00
2017-10-21T09:35:35.105Z,98.80
2017-10-21T09:38:03.039Z,99.00
2017-10-21T09:40:30.586Z,99.00
2017-10-21T09:42:58.133Z,98.90
2017-10-21T09:45:25.675Z,99.30
2017-10-21T09:47:53.261Z,99.10
2017-10-21T09:50:21.276Z,99.00
2017-10-21T09:52:48.840Z,99.10
2017-10-21T09:55:16.374Z,98.90
2017-10-21T09:57:43.915Z,98.70
2017-10-21T10:00:11.449Z,98.70
2017-10-21T10:02:39.006Z,98.70
2017-10-21T10:05:06.540Z,98.60
2017-10-21T10:07:34.080Z,98.50
2017-10-21T10:10:01.621Z,98.30
2017-10-21T10:12:29.561Z,98.50
2017-10-21T10:14:57.097Z,98.60
2017-10-21T10:17:24.665Z,98.50
2017-10-21T10:19:52.203Z,98.40
2017-10-21T10:22:20.152Z,98.20
2017-10-21T10:24:47.673Z,98.20
2017-10-21T10:27:15.209Z,98.10
2017-10-21T10:29:42.753Z,98.40
2017-10-21T10:32:10.278Z,98.40
2017-10-21T10:34:38.224Z,98.20
2017-10-21T10:37:05.746Z,98.20
2017-10-21T10:39:33.299Z,98.20
2017-10-21T10:42:00.835Z,98.20
2017-10-21T10:44:28.383Z,98.50
2017-10-21T10:46:55.909Z,98.30
2017-10-21T10:49:23.453Z,98.20
2017-10-21T10:51:50.983Z,98.10
2017-10-21T10:54:18.538Z,97.90
2017-10-21T10:56:46.466Z,97.90
2017-10-21T10:59:14.014Z,97.90
2017-10-21T11:01:41.548Z,98.10
2017-10-21T11:04:09.492Z,98.50
2017-10-21T11:06:37.018Z,98.50
2017-10-21T11:09:04.575Z,98.10
2017-10-21T11:11:32.487Z,97.50
2017-10-21T11:14:00.055Z,97.50
2017-10-21T11:16:27.597Z,98.00
2017-10-21T11:18:55.523Z,97.90
2017-10-21T11:21:23.061Z,97.90
2017-10-21T11:23:50.985Z,97.40
2017-10-21T11:26:18.535Z,97.40
2017-10-21T11:28:46.061Z,97.10
2017-10-21T11:31:13.608Z,97.60
2017-10-21T11:33:41.150Z,97.60
2017-10-21T11:36:08.696Z,98.00
2017-10-21T11:38:36.629Z,97.90
2017-10-21T11:41:04.176Z,97.90
2017-10-21T11:43:31.706Z,97.60
2017-10-21T11:45:59.267Z,96.80
2017-10-21T11:48:26.801Z,96.60
2017-10-21T11:50:54.334Z,96.60
2017-10-21T11:53:21.901Z,97.10
2017-10-21T11:55:49.455Z,96.60
2017-10-21T11:58:16.997Z,96.50
2017-10-21T12:00:44.558Z,96.20
2017-10-21T12:03:12.082Z,96.00
2017-10-21T12:05:40.046Z,96.60
2017-10-21T12:08:07.577Z,96.60
2017-10-21T12:10:35.115Z,96.60
2017-10-21T12:13:03.055Z,96.70
2017-10-21T12:15:30.666Z,96.70
2017-10-21T12:17:58.608Z,96.60
2017-10-21T12:20:26.126Z,96.60
2017-10-21T12:22:54.065Z,96.20
2017-10-21T12:25:21.595Z,96.20
2017-10-21T12:27:49.140Z,96.10
2017-10-21T12:30:17.076Z,95.20
2017-10-21T12:32:45.229Z,95.20
2017-10-21T12:35:12.777Z,95.60
2017-10-21T12:37:40.761Z,95.00
2017-10-21T12:40:08.741Z,95.10
2017-10-21T12:42:36.397Z,95.10
2017-10-21T12:45:03.934Z,95.40
2017-10-21T12:47:31.487Z,95.30
2017-10-21T12:49:59.044Z,94.70
2017-10-21T12:52:26.584Z,95.10
2017-10-21T12:54:54.101Z,95.20
2017-10-21T12:57:21.661Z,95.70
2017-10-21T12:59:49.200Z,95.60
2017-10-21T13:02:16.726Z,95.40
2017-10-21T13:04:44.264Z,95.10
2017-10-21T13:07:12.176Z,95.30
2017-10-21T13:09:39.733Z,95.30
2017-10-21T13:12:07.266Z,95.50
2017-10-21T13:14:35.199Z,95.50
2017-10-21T13:17:02.731Z,95.50
2017-10-21T13:19:30.274Z,95.70
2017-10-21T13:21:57.810Z,95.70
2017-10-21T13:24:25.342Z,95.50
2017-10-21T13:26:53.271Z,94.90
2017-10-21T13:29:20.816Z,94.90
2017-10-21T13:31:48.336Z,93.60
2017-10-21T13:34:15.886Z,91.50
2017-10-21T13:36:43.418Z,90.20
2017-10-21T13:39:11.359Z,89.80
2017-10-21T13:41:38.893Z,89.80
2017-10-21T13:44:06.432Z,89.50
2017-10-21T13:46:34.357Z,87.60
2017-10-21T13:49:01.929Z,87.60
2017-10-21T13:51:29.462Z,87.90
2017-10-21T13:53:56.988Z,88.50
2017-10-21T13:56:24.550Z,87.40
2017-10-21T13:58:52.072Z,86.60
2017-10-21T14:01:20.010Z,85.40
2017-10-21T14:03:47.535Z,85.40
2017-10-21T14:06:15.092Z,84.60
2017-10-21T14:08:43.014Z,84.70
2017-10-21T14:11:10.574Z,84.70
2017-10-21T14:13:38.104Z,83.50
2017-10-21T14:16:05.659Z,83.20
2017-10-21T14:18:33.184Z,82.90
2017-10-21T14:21:00.732Z,83.60
2017-10-21T14:23:29.198Z,82.90
2017-10-21T14:25:56.744Z,82.90
2017-10-21T14:28:24.262Z,82.70
2017-10-21T14:30:52.199Z,81.50
2017-10-21T14:33:19.725Z,81.50
2017-10-21T14:35:47.289Z,81.60
2017-10-21T14:38:15.237Z,81.60
2017-10-21T14:40:42.766Z,81.60
2017-10-21T14:43:10.315Z,80.70
2017-10-21T14:45:38.251Z,81.70
2017-10-21T14:48:05.822Z,81.70
2017-10-21T14:50:33.364Z,80.50
2017-10-21T14:53:00.900Z,81.30
2017-10-21T14:55:28.834Z,79.80
2017-10-21T14:57:56.375Z,79.80
2017-10-21T15:00:23.904Z,79.50
2017-10-21T15:02:51.451Z,80.30
2017-10-21T15:05:18.997Z,81.20
2017-10-21T15:07:46.552Z,82.60
2017-10-21T15:10:14.497Z,84.10
2017-10-21T15:12:42.049Z,84.10
2017-10-21T15:15:09.577Z,84.60
2017-10-21T15:17:37.137Z,83.30
2017-10-21T15:20:05.068Z,83.60
2017-10-21T15:22:32.614Z,83.60
2017-10-21T15:25:00.150Z,83.40
2017-10-21T15:27:28.078Z,79.90
2017-10-21T15:29:55.630Z,79.90
2017-10-21T15:32:23.168Z,78.90
2017-10-21T15:34:50.737Z,78.70
2017-10-21T15:37:18.271Z,78.20
2017-10-21T15:39:45.809Z,77.50
2017-10-21T15:42:13.730Z,76.70
2017-10-21T15:44:41.273Z,76.70
2017-10-21T15:47:08.796Z,77.70
2017-10-21T15:49:36.393Z,76.70
2017-10-21T15:52:04.395Z,76.30
2017-10-21T15:54:31.976Z,76.30
2017-10-21T15:56:59.502Z,75.50
2017-10-21T15:59:27.079Z,76.20
2017-10-21T16:01:54.622Z,76.20
2017-10-21T16:04:22.174Z,76.50
2017-10-21T16:06:49.701Z,75.60
2017-10-21T16:09:17.662Z,74.60
2017-10-21T16:11:45.220Z,74.60
2017-10-21T16:14:12.772Z,75.00
2017-10-21T16:16:40.284Z,74.20
2017-10-21T16:19:07.813Z,73.50
2017-10-21T16:21:35.348Z,73.80
2017-10-21T16:24:03.270Z,73.30
2017-10-21T16:26:30.823Z,73.30
2017-10-21T16:28:58.357Z,74.00
2017-10-21T16:31:26.298Z,73.20
2017-10-21T16:33:53.827Z,73.20
2017-10-21T16:36:21.762Z,73.50
2017-10-21T16:38:49.296Z,73.60
2017-10-21T16:41:16.846Z,73.30
2017-10-21T16:43:44.392Z,73.50
2017-10-21T16:46:12.352Z,73.50
2017-10-21T16:48:39.882Z,73.50
2017-10-21T16:51:07.421Z,73.60
2017-10-21T16:53:34.949Z,73.60
2017-10-21T16:56:02.494Z,74.10
2017-10-21T16:58:30.040Z,73.80
2017-10-21T17:00:57.586Z,73.90
2017-10-21T17:03:25.126Z,74.20
2017-10-21T17:05:52.703Z,73.90
2017-10-21T17:08:20.239Z,73.50
2017-10-21T17:10:47.791Z,73.70
2017-10-21T17:13:15.343Z,73.40
2017-10-21T17:15:42.929Z,73.20
2017-10-21T17:18:10.482Z,73.50
2017-10-21T17:20:38.026Z,73.50
2017-10-21T17:23:05.600Z,74.00
2017-10-21T17:25:33.126Z,74.20
2017-10-21T17:28:00.682Z,74.20
2017-10-21T17:30:28.216Z,74.20
2017-10-21T17:32:55.784Z,74.50
2017-10-21T17:35:23.325Z,74.80
2017-10-21T17:37:51.269Z,75.60
2017-10-21T17:40:18.812Z,75.60
2017-10-21T17:42:46.389Z,75.50
2017-10-21T17:45:13.912Z,75.70
2017-10-21T17:47:41.856Z,75.80
2017-10-21T17:50:09.381Z,75.80
2017-10-21T17:52:36.925Z,76.00
2017-10-21T17:55:04.447Z,76.10
2017-10-21T17:57:31.988Z,76.10
2017-10-21T17:59:59.932Z,76.60
2017-10-21T18:02:27.466Z,76.60
2017-10-21T18:04:55.022Z,76.40
2017-10-21T18:07:22.550Z,76.60
2017-10-21T18:09:50.096Z,76.70
2017-10-21T18:12:17.624Z,77.00
2017-10-21T18:14:45.172Z,77.00
2017-10-21T18:17:13.607Z,77.10
2017-10-21T18:19:41.167Z,77.40
2017-10-21T18:22:09.146Z,77.80
2017-10-21T18:24:36.690Z,77.80
2017-10-21T18:27:04.263Z,77.70
2017-10-21T18:29:31.923Z,77.70
2017-10-21T18:31:59.459Z,77.90
2017-10-21T18:34:27.038Z,78.00
2017-10-21T18:36:54.587Z,78.30
2017-10-21T18:39:22.145Z,78.40
2017-10-21T18:41:49.700Z,78.50
2017-10-21T18:44:17.274Z,78.70
2017-10-21T18:46:44.805Z,79.00
2017-10-21T18:49:12.333Z,79.30
2017-10-21T18:51:39.895Z,79.40
2017-10-21T18:54:07.833Z,79.80
2017-10-21T18:56:35.390Z,79.80
2017-10-21T18:59:02.922Z,80.30
2017-10-21T19:01:30.862Z,80.60
2017-10-21T19:03:58.395Z,80.60
2017-10-21T19:06:25.940Z,80.60
2017-10-21T19:08:53.877Z,80.80
2017-10-21T19:11:21.550Z,80.80
2017-10-21T19:13:49.098Z,80.80
2017-10-21T19:16:16.644Z,81.00
2017-10-21T19:18:44.603Z,81.60
2017-10-21T19:21:12.185Z,81.50
2017-10-21T19:23:39.725Z,81.70
2017-10-21T19:26:07.273Z,81.80
2017-10-21T19:28:34.829Z,82.00
2017-10-21T19:31:02.414Z,82.40
2017-10-21T19:33:29.995Z,82.40
2017-10-21T19:35:57.569Z,82.80
2017-10-21T19:38:25.112Z,82.70
2017-10-21T19:40:52.660Z,82.70
2017-10-21T19:43:26.097Z,82.90
2017-10-21T19:45:53.622Z,83.00
2017-10-21T19:48:21.173Z,83.20
2017-10-21T19:50:48.702Z,83.20
2017-10-21T19:53:16.652Z,83.80
2017-10-21T19:55:44.221Z,83.80
2017-10-21T19:58:11.795Z,83.80
2017-10-21T20:00:39.362Z,84.20
2017-10-21T20:03:06.923Z,84.60
2017-10-21T20:05:34.453Z,84.60
2017-10-21T20:08:02.011Z,84.80
2017-10-21T20:10:29.938Z,84.90
2017-10-21T20:12:57.483Z,84.90
2017-10-21T20:15:25.113Z,85.30
2017-10-21T20:17:52.679Z,85.60
2017-10-21T20:20:20.211Z,85.80
2017-10-21T20:22:47.763Z,86.10
2017-10-21T20:25:15.298Z,86.30
2017-10-21T20:27:42.870Z,86.30
2017-10-21T20:30:10.410Z,86.50
2017-10-21T20:32:38.154Z,86.80
2017-10-21T20:35:05.709Z,86.70
2017-10-21T20:37:33.250Z,87.00
2017-10-21T20:40:00.814Z,87.00
2017-10-21T20:42:28.345Z,87.30
2017-10-21T20:44:55.897Z,87.50
2017-10-21T20:47:23.816Z,87.60
2017-10-21T20:49:51.413Z,87.60
2017-10-21T20:52:18.957Z,87.50
2017-10-21T20:54:46.520Z,87.30
2017-10-21T20:57:14.059Z,87.40
2017-10-21T20:59:42.004Z,87.40
2017-10-21T21:02:09.548Z,87.40
2017-10-21T21:04:37.110Z,87.40
2017-10-21T21:07:04.673Z,87.30
2017-10-21T21:09:32.222Z,87.30
2017-10-21T21:12:00.167Z,87.30
2017-10-21T21:14:27.712Z,87.40
2017-10-21T21:16:55.229Z,87.40
2017-10-21T21:19:23.214Z,87.60
2017-10-21T21:21:50.761Z,87.60
2017-10-21T21:24:18.298Z,87.70
2017-10-21T21:26:45.852Z,87.60
2017-10-21T21:29:13.785Z,87.60
2017-10-21T21:31:41.342Z,87.60
2017-10-21T21:34:08.879Z,87.50
2017-10-21T21:36:36.439Z,87.10
2017-10-21T21:39:04.361Z,87.00
2017-10-21T21:41:31.919Z,87.00
2017-10-21T21:43:59.464Z,86.50
2017-10-21T21:46:27.914Z,86.60
2017-10-21T21:48:55.451Z,86.30
2017-10-21T21:51:22.983Z,86.00
2017-10-21T21:53:50.546Z,85.90
2017-10-21T21:56:18.082Z,85.80
2017-10-21T21:58:45.659Z,85.80
2017-10-21T22:01:13.201Z,85.70
2017-10-21T22:03:40.748Z,85.50
2017-10-21T22:06:08.756Z,85.30
2017-10-21T22:08:36.355Z,85.20
2017-10-21T22:11:03.907Z,85.30
2017-10-21T22:13:31.503Z,85.10
2017-10-21T22:15:59.098Z,84.90
2017-10-21T22:18:26.669Z,85.00
2017-10-21T22:20:54.216Z,84.90
2017-10-21T22:23:21.746Z,84.40
2017-10-21T22:25:49.326Z,84.50
2017-10-21T22:28:16.866Z,84.20
2017-10-21T22:30:44.437Z,84.50
2017-10-21T22:33:11.991Z,84.30
2017-10-21T22:35:39.539Z,84.20
2017-10-21T22:38:07.111Z,83.90
2017-10-21T22:40:34.658Z,83.80
2017-10-21T22:43:02.229Z,83.90
2017-10-21T22:45:29.768Z,83.70
2017-10-21T22:47:57.300Z,83.30
2017-10-21T22:50:24.854Z,83.00
2017-10-21T22:52:52.438Z,83.10
2017-10-21T22:55:20.010Z,83.10
2017-10-21T22:57:47.553Z,83.00
2017-10-21T23:00:15.124Z,82.80
2017-10-21T23:02:42.668Z,82.80
2017-10-21T23:05:10.235Z,82.70
2017-10-21T23:07:37.783Z,82.70
2017-10-21T23:10:05.325Z,82.70
2017-10-21T23:12:32.875Z,82.70
2017-10-21T23:15:00.420Z,82.60
2017-10-21T23:17:28.418Z,82.40
2017-10-21T23:19:55.948Z,82.40
2017-10-21T23:22:23.490Z,82.20
2017-10-21T23:24:51.052Z,81.90
2017-10-21T23:27:18.992Z,82.10
2017-10-21T23:29:46.584Z,82.20
2017-10-21T23:32:14.115Z,81.80
2017-10-21T23:34:41.653Z,81.80
2017-10-21T23:37:09.579Z,81.60
2017-10-21T23:39:37.194Z,81.60
2017-10-21T23:42:04.738Z,81.60
2017-10-21T23:44:32.314Z,81.70
2017-10-21T23:46:59.861Z,81.80
2017-10-21T23:49:27.406Z,81.80
2017-10-21T23:51:54.976Z,81.90
2017-10-21T23:54:22.528Z,82.00
2017-10-21T23:56:50.469Z,82.10
2017-10-21T23:59:18.026Z,82.10
